< < Back
Terminal Aerodrome Forecast


Current Version              Previous Versions:   1  2  3  4  5  6  7  8  9  

Terminal Aerodrome Forecast

144
FTUS42 KJAX 011700
TAFJAX
TAF
KJAX 011721Z 0118/0218 VRB03KT P6SM SCT035 SCT060
     FM012000 12008KT P6SM VCTS SCT040CB BKN250
     FM020000 15005KT P6SM FEW040 BKN250
     FM020300 VRB03KT P6SM SCT250
     FM021300 23003KT P6SM SCT030=

Latest METAR

465
SAUS80 KWBC 011900 RRI
MTRJAX
METAR KJAX 011856Z 12006KT 10SM BKN045TCU BKN250 32/22 A3007 RMK AO2
SLP183 CB DSNT S TCU SE AND SW T03220222


USA.gov is the U.S. government's official web portal to all federal, state and local government web resources and services.